sensor_id;sensor_type;location;lat;lon;timestamp;P1;durP1;ratioP1;P2;durP2;ratioP2
52934;SDS011;38802;50.198;19.796;2022-12-07T00:01:40;26.20;;;19.30;;
52934;SDS011;38802;50.198;19.796;2022-12-07T00:04:10;20.30;;;16.20;;
52934;SDS011;38802;50.198;19.796;2022-12-07T00:06:40;21.50;;;17.20;;
52934;SDS011;38802;50.198;19.796;2022-12-07T00:09:10;26.70;;;17.40;;
52934;SDS011;38802;50.198;19.796;2022-12-07T00:11:39;27.20;;;18.20;;
52934;SDS011;38802;50.198;19.796;2022-12-07T00:14:06;24.10;;;18.70;;
52934;SDS011;38802;50.198;19.796;2022-12-07T00:16:36;23.90;;;17.10;;
52934;SDS011;38802;50.198;19.796;2022-12-07T00:19:03;21.00;;;16.20;;
52934;SDS011;38802;50.198;19.796;2022-12-07T00:21:31;20.20;;;15.80;;
52934;SDS011;38802;50.198;19.796;2022-12-07T00:24:00;20.30;;;15.80;;
52934;SDS011;38802;50.198;19.796;2022-12-07T00:26:29;24.90;;;17.70;;
52934;SDS011;38802;50.198;19.796;2022-12-07T00:29:01;25.00;;;17.40;;
52934;SDS011;38802;50.198;19.796;2022-12-07T00:31:33;21.00;;;16.60;;
52934;SDS011;38802;50.198;19.796;2022-12-07T00:34:02;24.10;;;17.80;;
52934;SDS011;38802;50.198;19.796;2022-12-07T00:36:29;22.10;;;18.60;;
52934;SDS011;38802;50.198;19.796;2022-12-07T00:38:57;20.10;;;17.30;;
52934;SDS011;38802;50.198;19.796;2022-12-07T00:41:25;22.70;;;18.20;;
52934;SDS011;38802;50.198;19.796;2022-12-07T00:43:53;24.30;;;18.50;;
52934;SDS011;38802;50.198;19.796;2022-12-07T00:46:20;28.50;;;19.30;;
52934;SDS011;38802;50.198;19.796;2022-12-07T00:48:48;28.80;;;19.60;;
52934;SDS011;38802;50.198;19.796;2022-12-07T00:51:16;24.80;;;18.00;;
52934;SDS011;38802;50.198;19.796;2022-12-07T00:53:45;30.10;;;19.10;;
52934;SDS011;38802;50.198;19.796;2022-12-07T00:56:13;23.30;;;18.60;;
52934;SDS011;38802;50.198;19.796;2022-12-07T00:58:41;23.70;;;17.20;;
52934;SDS011;38802;50.198;19.796;2022-12-07T01:01:08;26.90;;;19.20;;
52934;SDS011;38802;50.198;19.796;2022-12-07T01:03:37;24.90;;;17.40;;
52934;SDS011;38802;50.198;19.796;2022-12-07T01:06:04;28.60;;;17.90;;
52934;SDS011;38802;50.198;19.796;2022-12-07T01:08:32;23.80;;;16.90;;
52934;SDS011;38802;50.198;19.796;2022-12-07T01:11:00;25.50;;;17.50;;
52934;SDS011;38802;50.198;19.796;2022-12-07T01:13:28;24.00;;;17.60;;
52934;SDS011;38802;50.198;19.796;2022-12-07T01:15:59;24.00;;;17.40;;
52934;SDS011;38802;50.198;19.796;2022-12-07T01:18:27;26.20;;;17.40;;
52934;SDS011;38802;50.198;19.796;2022-12-07T01:20:59;20.20;;;15.90;;
52934;SDS011;38802;50.198;19.796;2022-12-07T01:23:30;21.70;;;16.90;;
52934;SDS011;38802;50.198;19.796;2022-12-07T01:25:58;24.20;;;15.40;;
52934;SDS011;38802;50.198;19.796;2022-12-07T01:28:27;18.50;;;14.20;;
52934;SDS011;38802;50.198;19.796;2022-12-07T01:30:55;18.40;;;13.80;;
52934;SDS011;38802;50.198;19.796;2022-12-07T01:33:26;16.00;;;13.40;;
52934;SDS011;38802;50.198;19.796;2022-12-07T01:36:00;17.80;;;13.90;;
52934;SDS011;38802;50.198;19.796;2022-12-07T01:38:30;16.10;;;14.10;;
52934;SDS011;38802;50.198;19.796;2022-12-07T01:40:58;14.80;;;13.10;;
52934;SDS011;38802;50.198;19.796;2022-12-07T01:43:27;15.40;;;11.40;;
52934;SDS011;38802;50.198;19.796;2022-12-07T01:45:55;14.50;;;11.10;;
52934;SDS011;38802;50.198;19.796;2022-12-07T01:48:26;11.20;;;9.60;;
52934;SDS011;38802;50.198;19.796;2022-12-07T01:50:59;10.30;;;9.30;;
52934;SDS011;38802;50.198;19.796;2022-12-07T01:53:30;13.00;;;11.60;;
52934;SDS011;38802;50.198;19.796;2022-12-07T01:56:00;10.00;;;8.80;;
52934;SDS011;38802;50.198;19.796;2022-12-07T01:58:27;11.20;;;10.10;;
52934;SDS011;38802;50.198;19.796;2022-12-07T02:00:55;10.60;;;9.20;;
52934;SDS011;38802;50.198;19.796;2022-12-07T02:03:22;11.30;;;10.10;;
52934;SDS011;38802;50.198;19.796;2022-12-07T02:05:53;11.40;;;10.30;;
52934;SDS011;38802;50.198;19.796;2022-12-07T02:08:21;14.20;;;11.20;;
52934;SDS011;38802;50.198;19.796;2022-12-07T02:10:48;10.90;;;9.90;;
52934;SDS011;38802;50.198;19.796;2022-12-07T02:13:17;9.90;;;9.00;;
52934;SDS011;38802;50.198;19.796;2022-12-07T02:30:00;10.40;;;9.40;;
52934;SDS011;38802;50.198;19.796;2022-12-07T02:35:25;13.60;;;9.70;;
52934;SDS011;38802;50.198;19.796;2022-12-07T02:38:04;11.60;;;9.10;;
52934;SDS011;38802;50.198;19.796;2022-12-07T02:40:36;12.40;;;9.80;;
52934;SDS011;38802;50.198;19.796;2022-12-07T02:43:09;10.90;;;9.80;;
52934;SDS011;38802;50.198;19.796;2022-12-07T02:45:43;12.70;;;11.50;;
52934;SDS011;38802;50.198;19.796;2022-12-07T02:48:13;13.40;;;11.80;;
52934;SDS011;38802;50.198;19.796;2022-12-07T02:51:00;15.70;;;11.60;;
52934;SDS011;38802;50.198;19.796;2022-12-07T02:53:42;13.90;;;11.70;;
52934;SDS011;38802;50.198;19.796;2022-12-07T03:01:30;13.70;;;11.30;;
52934;SDS011;38802;50.198;19.796;2022-12-07T03:06:49;17.20;;;12.10;;
52934;SDS011;38802;50.198;19.796;2022-12-07T03:12:46;15.60;;;12.40;;
52934;SDS011;38802;50.198;19.796;2022-12-07T03:15:26;17.10;;;13.90;;
52934;SDS011;38802;50.198;19.796;2022-12-07T03:17:55;17.90;;;13.90;;
52934;SDS011;38802;50.198;19.796;2022-12-07T03:20:25;18.10;;;13.90;;
52934;SDS011;38802;50.198;19.796;2022-12-07T03:22:55;20.70;;;14.80;;
52934;SDS011;38802;50.198;19.796;2022-12-07T03:25:24;17.10;;;12.60;;
52934;SDS011;38802;50.198;19.796;2022-12-07T03:27:56;23.70;;;13.90;;
52934;SDS011;38802;50.198;19.796;2022-12-07T03:30:28;25.20;;;15.20;;
52934;SDS011;38802;50.198;19.796;2022-12-07T03:36:11;21.30;;;15.20;;
52934;SDS011;38802;50.198;19.796;2022-12-07T03:38:38;21.20;;;15.90;;
52934;SDS011;38802;50.198;19.796;2022-12-07T03:41:13;27.70;;;16.40;;
52934;SDS011;38802;50.198;19.796;2022-12-07T03:43:54;20.40;;;14.50;;
52934;SDS011;38802;50.198;19.796;2022-12-07T03:54:39;19.60;;;14.50;;
52934;SDS011;38802;50.198;19.796;2022-12-07T03:57:20;23.60;;;15.40;;
52934;SDS011;38802;50.198;19.796;2022-12-07T03:59:49;17.30;;;14.60;;
52934;SDS011;38802;50.198;19.796;2022-12-07T04:02:17;19.00;;;13.50;;
52934;SDS011;38802;50.198;19.796;2022-12-07T04:04:44;21.50;;;14.00;;
52934;SDS011;38802;50.198;19.796;2022-12-07T04:07:11;19.50;;;14.20;;
52934;SDS011;38802;50.198;19.796;2022-12-07T04:09:39;23.00;;;15.60;;
52934;SDS011;38802;50.198;19.796;2022-12-07T04:12:06;22.40;;;14.70;;
52934;SDS011;38802;50.198;19.796;2022-12-07T04:14:33;19.40;;;14.90;;
52934;SDS011;38802;50.198;19.796;2022-12-07T04:17:00;14.90;;;12.30;;
52934;SDS011;38802;50.198;19.796;2022-12-07T04:19:31;17.60;;;14.20;;
52934;SDS011;38802;50.198;19.796;2022-12-07T04:22:00;19.40;;;13.70;;
52934;SDS011;38802;50.198;19.796;2022-12-07T04:24:28;18.10;;;13.20;;
52934;SDS011;38802;50.198;19.796;2022-12-07T04:26:55;14.60;;;11.80;;
52934;SDS011;38802;50.198;19.796;2022-12-07T04:29:22;16.00;;;12.70;;
52934;SDS011;38802;50.198;19.796;2022-12-07T04:31:50;15.10;;;12.70;;
52934;SDS011;38802;50.198;19.796;2022-12-07T04:34:17;16.90;;;13.40;;
52934;SDS011;38802;50.198;19.796;2022-12-07T04:36:44;15.70;;;13.70;;
52934;SDS011;38802;50.198;19.796;2022-12-07T04:39:30;23.10;;;15.50;;
52934;SDS011;38802;50.198;19.796;2022-12-07T04:41:59;22.50;;;14.90;;
52934;SDS011;38802;50.198;19.796;2022-12-07T04:44:26;22.00;;;15.10;;
52934;SDS011;38802;50.198;19.796;2022-12-07T04:46:54;24.70;;;14.80;;
52934;SDS011;38802;50.198;19.796;2022-12-07T04:49:23;18.90;;;14.20;;
52934;SDS011;38802;50.198;19.796;2022-12-07T04:51:51;16.10;;;13.80;;
52934;SDS011;38802;50.198;19.796;2022-12-07T04:54:18;17.00;;;14.00;;
52934;SDS011;38802;50.198;19.796;2022-12-07T04:56:45;18.10;;;14.00;;
52934;SDS011;38802;50.198;19.796;2022-12-07T04:59:12;15.60;;;13.10;;
52934;SDS011;38802;50.198;19.796;2022-12-07T05:01:40;15.90;;;12.60;;
52934;SDS011;38802;50.198;19.796;2022-12-07T05:04:07;14.60;;;11.70;;
52934;SDS011;38802;50.198;19.796;2022-12-07T05:06:35;13.70;;;11.70;;
52934;SDS011;38802;50.198;19.796;2022-12-07T05:09:02;15.60;;;12.80;;
52934;SDS011;38802;50.198;19.796;2022-12-07T05:11:30;15.90;;;13.10;;
52934;SDS011;38802;50.198;19.796;2022-12-07T05:16:44;17.30;;;14.20;;
52934;SDS011;38802;50.198;19.796;2022-12-07T05:19:13;19.30;;;15.50;;
52934;SDS011;38802;50.198;19.796;2022-12-07T05:21:41;21.00;;;15.80;;
52934;SDS011;38802;50.198;19.796;2022-12-07T05:24:09;18.50;;;14.10;;
52934;SDS011;38802;50.198;19.796;2022-12-07T05:26:38;22.50;;;14.20;;
52934;SDS011;38802;50.198;19.796;2022-12-07T05:29:05;19.70;;;14.20;;
52934;SDS011;38802;50.198;19.796;2022-12-07T05:31:32;18.80;;;14.60;;
52934;SDS011;38802;50.198;19.796;2022-12-07T05:33:59;17.80;;;14.90;;
52934;SDS011;38802;50.198;19.796;2022-12-07T05:36:26;17.50;;;13.80;;
52934;SDS011;38802;50.198;19.796;2022-12-07T05:38:54;20.50;;;13.90;;
52934;SDS011;38802;50.198;19.796;2022-12-07T05:41:21;20.20;;;14.30;;
52934;SDS011;38802;50.198;19.796;2022-12-07T05:44:07;34.90;;;17.40;;
52934;SDS011;38802;50.198;19.796;2022-12-07T05:46:34;23.60;;;15.10;;
52934;SDS011;38802;50.198;19.796;2022-12-07T05:49:01;28.10;;;16.00;;
52934;SDS011;38802;50.198;19.796;2022-12-07T05:51:29;24.50;;;14.00;;
52934;SDS011;38802;50.198;19.796;2022-12-07T05:53:55;21.00;;;13.60;;
52934;SDS011;38802;50.198;19.796;2022-12-07T05:56:22;25.10;;;14.70;;
52934;SDS011;38802;50.198;19.796;2022-12-07T05:58:49;20.70;;;14.50;;
52934;SDS011;38802;50.198;19.796;2022-12-07T06:01:35;20.50;;;15.40;;
52934;SDS011;38802;50.198;19.796;2022-12-07T06:04:01;25.30;;;15.60;;
52934;SDS011;38802;50.198;19.796;2022-12-07T06:06:28;24.20;;;17.40;;
52934;SDS011;38802;50.198;19.796;2022-12-07T06:08:55;26.70;;;17.20;;
52934;SDS011;38802;50.198;19.796;2022-12-07T06:11:21;25.90;;;17.10;;
52934;SDS011;38802;50.198;19.796;2022-12-07T06:14:07;26.20;;;16.80;;
52934;SDS011;38802;50.198;19.796;2022-12-07T06:16:34;28.70;;;17.90;;
52934;SDS011;38802;50.198;19.796;2022-12-07T06:19:01;25.10;;;17.40;;
52934;SDS011;38802;50.198;19.796;2022-12-07T06:21:28;25.50;;;16.80;;
52934;SDS011;38802;50.198;19.796;2022-12-07T06:23:54;28.30;;;18.00;;
52934;SDS011;38802;50.198;19.796;2022-12-07T06:26:21;32.10;;;18.30;;
52934;SDS011;38802;50.198;19.796;2022-12-07T06:28:48;25.50;;;17.70;;
52934;SDS011;38802;50.198;19.796;2022-12-07T06:31:15;26.60;;;16.80;;
52934;SDS011;38802;50.198;19.796;2022-12-07T06:33:42;25.90;;;16.80;;
52934;SDS011;38802;50.198;19.796;2022-12-07T06:36:09;24.90;;;16.70;;
52934;SDS011;38802;50.198;19.796;2022-12-07T06:38:37;30.40;;;17.50;;
52934;SDS011;38802;50.198;19.796;2022-12-07T06:41:03;27.80;;;15.90;;
52934;SDS011;38802;50.198;19.796;2022-12-07T06:43:31;22.10;;;15.20;;
52934;SDS011;38802;50.198;19.796;2022-12-07T06:45:58;27.20;;;15.70;;
52934;SDS011;38802;50.198;19.796;2022-12-07T06:48:25;17.80;;;14.00;;
52934;SDS011;38802;50.198;19.796;2022-12-07T06:50:51;23.30;;;14.70;;
52934;SDS011;38802;50.198;19.796;2022-12-07T06:53:21;23.70;;;15.30;;
52934;SDS011;38802;50.198;19.796;2022-12-07T06:55:49;20.10;;;13.50;;
52934;SDS011;38802;50.198;19.796;2022-12-07T06:58:16;21.00;;;14.50;;
52934;SDS011;38802;50.198;19.796;2022-12-07T07:00:43;24.30;;;16.10;;
52934;SDS011;38802;50.198;19.796;2022-12-07T07:03:11;26.70;;;17.00;;
52934;SDS011;38802;50.198;19.796;2022-12-07T07:05:37;21.60;;;15.70;;
52934;SDS011;38802;50.198;19.796;2022-12-07T07:08:04;21.60;;;15.80;;
52934;SDS011;38802;50.198;19.796;2022-12-07T07:10:48;20.70;;;13.90;;
52934;SDS011;38802;50.198;19.796;2022-12-07T07:13:15;18.60;;;12.90;;
52934;SDS011;38802;50.198;19.796;2022-12-07T07:15:42;13.00;;;11.50;;
52934;SDS011;38802;50.198;19.796;2022-12-07T07:18:09;14.80;;;12.70;;
52934;SDS011;38802;50.198;19.796;2022-12-07T07:20:36;19.40;;;14.10;;
52934;SDS011;38802;50.198;19.796;2022-12-07T07:23:03;20.80;;;14.60;;
52934;SDS011;38802;50.198;19.796;2022-12-07T07:25:30;18.50;;;13.80;;
52934;SDS011;38802;50.198;19.796;2022-12-07T07:27:58;20.20;;;14.40;;
52934;SDS011;38802;50.198;19.796;2022-12-07T07:30:25;20.30;;;14.80;;
52934;SDS011;38802;50.198;19.796;2022-12-07T07:32:55;22.40;;;17.20;;
52934;SDS011;38802;50.198;19.796;2022-12-07T07:35:27;31.50;;;19.40;;
52934;SDS011;38802;50.198;19.796;2022-12-07T07:37:55;30.10;;;21.20;;
52934;SDS011;38802;50.198;19.796;2022-12-07T07:40:22;30.30;;;20.10;;
52934;SDS011;38802;50.198;19.796;2022-12-07T07:42:49;41.70;;;21.80;;
52934;SDS011;38802;50.198;19.796;2022-12-07T07:45:18;37.00;;;22.40;;
52934;SDS011;38802;50.198;19.796;2022-12-07T07:47:49;44.40;;;28.20;;
52934;SDS011;38802;50.198;19.796;2022-12-07T07:50:17;49.90;;;25.00;;
52934;SDS011;38802;50.198;19.796;2022-12-07T07:52:45;46.70;;;27.30;;
52934;SDS011;38802;50.198;19.796;2022-12-07T07:55:12;48.90;;;26.40;;
52934;SDS011;38802;50.198;19.796;2022-12-07T07:57:39;49.20;;;25.60;;
52934;SDS011;38802;50.198;19.796;2022-12-07T08:00:08;46.10;;;25.00;;
52934;SDS011;38802;50.198;19.796;2022-12-07T08:02:40;40.60;;;24.10;;
52934;SDS011;38802;50.198;19.796;2022-12-07T08:05:10;41.00;;;24.20;;
52934;SDS011;38802;50.198;19.796;2022-12-07T08:07:38;42.00;;;23.10;;
52934;SDS011;38802;50.198;19.796;2022-12-07T08:10:05;36.70;;;21.80;;
52934;SDS011;38802;50.198;19.796;2022-12-07T08:12:35;32.20;;;20.80;;
52934;SDS011;38802;50.198;19.796;2022-12-07T08:15:03;34.90;;;21.50;;
52934;SDS011;38802;50.198;19.796;2022-12-07T08:17:30;34.10;;;20.00;;
52934;SDS011;38802;50.198;19.796;2022-12-07T08:19:58;26.40;;;18.70;;
52934;SDS011;38802;50.198;19.796;2022-12-07T08:22:24;32.20;;;18.90;;
52934;SDS011;38802;50.198;19.796;2022-12-07T08:24:51;23.90;;;15.90;;
52934;SDS011;38802;50.198;19.796;2022-12-07T08:27:18;26.00;;;17.10;;
52934;SDS011;38802;50.198;19.796;2022-12-07T08:29:47;22.80;;;16.40;;
52934;SDS011;38802;50.198;19.796;2022-12-07T08:32:14;23.00;;;15.10;;
52934;SDS011;38802;50.198;19.796;2022-12-07T08:34:41;25.90;;;16.20;;
52934;SDS011;38802;50.198;19.796;2022-12-07T08:37:07;27.20;;;16.60;;
52934;SDS011;38802;50.198;19.796;2022-12-07T08:39:34;20.90;;;16.00;;
52934;SDS011;38802;50.198;19.796;2022-12-07T08:42:01;20.00;;;15.10;;
52934;SDS011;38802;50.198;19.796;2022-12-07T08:44:30;22.70;;;17.20;;
52934;SDS011;38802;50.198;19.796;2022-12-07T08:46:58;23.60;;;16.50;;
52934;SDS011;38802;50.198;19.796;2022-12-07T08:49:37;18.60;;;14.70;;
52934;SDS011;38802;50.198;19.796;2022-12-07T08:52:07;23.50;;;16.70;;
52934;SDS011;38802;50.198;19.796;2022-12-07T08:54:35;19.40;;;15.60;;
52934;SDS011;38802;50.198;19.796;2022-12-07T08:57:05;18.00;;;12.90;;
52934;SDS011;38802;50.198;19.796;2022-12-07T08:59:32;15.30;;;12.70;;
52934;SDS011;38802;50.198;19.796;2022-12-07T09:02:04;13.90;;;12.50;;
52934;SDS011;38802;50.198;19.796;2022-12-07T09:04:31;13.90;;;12.30;;
52934;SDS011;38802;50.198;19.796;2022-12-07T09:06:58;18.80;;;14.90;;
52934;SDS011;38802;50.198;19.796;2022-12-07T09:09:25;13.20;;;11.80;;
52934;SDS011;38802;50.198;19.796;2022-12-07T09:11:52;14.00;;;12.00;;
52934;SDS011;38802;50.198;19.796;2022-12-07T09:14:19;16.30;;;12.90;;
52934;SDS011;38802;50.198;19.796;2022-12-07T09:16:46;16.80;;;13.60;;
52934;SDS011;38802;50.198;19.796;2022-12-07T09:19:12;17.10;;;13.40;;
52934;SDS011;38802;50.198;19.796;2022-12-07T09:21:39;17.20;;;13.30;;
52934;SDS011;38802;50.198;19.796;2022-12-07T09:24:06;18.30;;;13.10;;
52934;SDS011;38802;50.198;19.796;2022-12-07T09:26:33;15.40;;;12.30;;
52934;SDS011;38802;50.198;19.796;2022-12-07T09:29:02;13.30;;;11.70;;
52934;SDS011;38802;50.198;19.796;2022-12-07T09:31:29;15.80;;;12.80;;
52934;SDS011;38802;50.198;19.796;2022-12-07T09:33:57;13.90;;;12.00;;
52934;SDS011;38802;50.198;19.796;2022-12-07T09:36:25;17.30;;;12.50;;
52934;SDS011;38802;50.198;19.796;2022-12-07T09:38:53;15.80;;;12.70;;
52934;SDS011;38802;50.198;19.796;2022-12-07T09:41:21;14.80;;;12.20;;
52934;SDS011;38802;50.198;19.796;2022-12-07T09:43:49;23.40;;;14.50;;
52934;SDS011;38802;50.198;19.796;2022-12-07T09:46:17;17.80;;;14.60;;
52934;SDS011;38802;50.198;19.796;2022-12-07T09:48:45;17.40;;;14.50;;
52934;SDS011;38802;50.198;19.796;2022-12-07T09:51:16;22.70;;;16.20;;
52934;SDS011;38802;50.198;19.796;2022-12-07T09:53:51;26.30;;;16.90;;
52934;SDS011;38802;50.198;19.796;2022-12-07T09:56:19;24.70;;;17.80;;
52934;SDS011;38802;50.198;19.796;2022-12-07T09:58:47;27.10;;;19.30;;
52934;SDS011;38802;50.198;19.796;2022-12-07T10:01:16;18.80;;;15.20;;
52934;SDS011;38802;50.198;19.796;2022-12-07T10:03:48;24.10;;;17.80;;
52934;SDS011;38802;50.198;19.796;2022-12-07T10:06:20;25.20;;;17.30;;
52934;SDS011;38802;50.198;19.796;2022-12-07T10:08:48;25.20;;;16.40;;
52934;SDS011;38802;50.198;19.796;2022-12-07T10:11:14;23.80;;;16.00;;
52934;SDS011;38802;50.198;19.796;2022-12-07T10:13:51;27.50;;;18.50;;
52934;SDS011;38802;50.198;19.796;2022-12-07T10:16:31;26.60;;;17.40;;
52934;SDS011;38802;50.198;19.796;2022-12-07T10:19:04;26.70;;;17.10;;
52934;SDS011;38802;50.198;19.796;2022-12-07T10:22:00;30.00;;;18.90;;
52934;SDS011;38802;50.198;19.796;2022-12-07T10:24:29;24.10;;;16.00;;
52934;SDS011;38802;50.198;19.796;2022-12-07T10:26:56;24.90;;;17.50;;
52934;SDS011;38802;50.198;19.796;2022-12-07T10:35:18;29.60;;;19.60;;
52934;SDS011;38802;50.198;19.796;2022-12-07T10:37:51;24.80;;;19.00;;
52934;SDS011;38802;50.198;19.796;2022-12-07T10:40:27;32.10;;;19.30;;
52934;SDS011;38802;50.198;19.796;2022-12-07T10:46:07;23.70;;;17.60;;
52934;SDS011;38802;50.198;19.796;2022-12-07T10:51:41;27.40;;;18.00;;
52934;SDS011;38802;50.198;19.796;2022-12-07T10:57:31;28.40;;;18.00;;
52934;SDS011;38802;50.198;19.796;2022-12-07T11:11:16;26.60;;;19.30;;
52934;SDS011;38802;50.198;19.796;2022-12-07T11:16:57;24.00;;;18.20;;
52934;SDS011;38802;50.198;19.796;2022-12-07T11:19:47;26.60;;;19.60;;
52934;SDS011;38802;50.198;19.796;2022-12-07T11:25:15;25.70;;;18.60;;
52934;SDS011;38802;50.198;19.796;2022-12-07T11:33:50;22.40;;;16.50;;
52934;SDS011;38802;50.198;19.796;2022-12-07T11:36:39;23.30;;;16.50;;
52934;SDS011;38802;50.198;19.796;2022-12-07T11:41:40;21.60;;;16.20;;
52934;SDS011;38802;50.198;19.796;2022-12-07T11:44:16;20.60;;;15.90;;
52934;SDS011;38802;50.198;19.796;2022-12-07T11:47:02;22.40;;;16.50;;
52934;SDS011;38802;50.198;19.796;2022-12-07T11:49:54;22.90;;;17.80;;
52934;SDS011;38802;50.198;19.796;2022-12-07T11:52:48;18.50;;;16.10;;
52934;SDS011;38802;50.198;19.796;2022-12-07T11:58:18;19.20;;;15.60;;
52934;SDS011;38802;50.198;19.796;2022-12-07T12:01:04;18.00;;;16.20;;
52934;SDS011;38802;50.198;19.796;2022-12-07T12:06:30;22.80;;;16.10;;
52934;SDS011;38802;50.198;19.796;2022-12-07T12:25:36;16.80;;;14.70;;
52934;SDS011;38802;50.198;19.796;2022-12-07T12:28:04;21.20;;;15.60;;
52934;SDS011;38802;50.198;19.796;2022-12-07T12:52:01;20.50;;;16.10;;
52934;SDS011;38802;50.198;19.796;2022-12-07T12:57:35;19.50;;;15.80;;
52934;SDS011;38802;50.198;19.796;2022-12-07T13:02:48;24.20;;;17.20;;
52934;SDS011;38802;50.198;19.796;2022-12-07T13:05:24;19.00;;;15.00;;
52934;SDS011;38802;50.198;19.796;2022-12-07T13:07:56;16.70;;;14.60;;
52934;SDS011;38802;50.198;19.796;2022-12-07T13:13:00;18.40;;;14.70;;
52934;SDS011;38802;50.198;19.796;2022-12-07T13:15:46;18.00;;;14.70;;
52934;SDS011;38802;50.198;19.796;2022-12-07T13:26:14;13.40;;;11.70;;
52934;SDS011;38802;50.198;19.796;2022-12-07T13:28:46;12.40;;;11.20;;
52934;SDS011;38802;50.198;19.796;2022-12-07T13:31:37;14.10;;;12.60;;
52934;SDS011;38802;50.198;19.796;2022-12-07T13:34:27;11.20;;;10.30;;
52934;SDS011;38802;50.198;19.796;2022-12-07T13:36:59;12.30;;;11.00;;
52934;SDS011;38802;50.198;19.796;2022-12-07T13:39:28;15.50;;;11.50;;
52934;SDS011;38802;50.198;19.796;2022-12-07T13:41:56;17.00;;;11.40;;
52934;SDS011;38802;50.198;19.796;2022-12-07T13:44:25;14.40;;;11.60;;
52934;SDS011;38802;50.198;19.796;2022-12-07T13:49:48;12.60;;;11.30;;
52934;SDS011;38802;50.198;19.796;2022-12-07T13:52:21;12.00;;;10.90;;
52934;SDS011;38802;50.198;19.796;2022-12-07T13:57:44;13.00;;;11.70;;
52934;SDS011;38802;50.198;19.796;2022-12-07T14:00:15;12.70;;;11.40;;
52934;SDS011;38802;50.198;19.796;2022-12-07T14:05:29;14.70;;;12.80;;
52934;SDS011;38802;50.198;19.796;2022-12-07T14:13:01;13.80;;;12.30;;
52934;SDS011;38802;50.198;19.796;2022-12-07T14:15:33;13.80;;;12.40;;
52934;SDS011;38802;50.198;19.796;2022-12-07T14:18:02;14.80;;;11.30;;
52934;SDS011;38802;50.198;19.796;2022-12-07T14:20:35;17.50;;;13.20;;
52934;SDS011;38802;50.198;19.796;2022-12-07T14:23:03;14.10;;;12.60;;
52934;SDS011;38802;50.198;19.796;2022-12-07T14:25:44;17.70;;;14.40;;
52934;SDS011;38802;50.198;19.796;2022-12-07T14:28:26;17.50;;;14.30;;
52934;SDS011;38802;50.198;19.796;2022-12-07T14:30:55;14.80;;;13.30;;
52934;SDS011;38802;50.198;19.796;2022-12-07T14:33:22;15.90;;;13.80;;
52934;SDS011;38802;50.198;19.796;2022-12-07T14:35:50;18.90;;;15.10;;
52934;SDS011;38802;50.198;19.796;2022-12-07T14:38:21;18.70;;;15.00;;
52934;SDS011;38802;50.198;19.796;2022-12-07T14:40:48;17.90;;;14.60;;
52934;SDS011;38802;50.198;19.796;2022-12-07T14:43:16;20.00;;;14.90;;
52934;SDS011;38802;50.198;19.796;2022-12-07T14:45:44;21.30;;;15.70;;
52934;SDS011;38802;50.198;19.796;2022-12-07T14:48:13;20.00;;;15.60;;
52934;SDS011;38802;50.198;19.796;2022-12-07T14:51:01;18.90;;;15.50;;
52934;SDS011;38802;50.198;19.796;2022-12-07T14:53:50;17.20;;;15.10;;
52934;SDS011;38802;50.198;19.796;2022-12-07T14:56:23;16.70;;;15.00;;
52934;SDS011;38802;50.198;19.796;2022-12-07T14:58:51;18.90;;;15.40;;
52934;SDS011;38802;50.198;19.796;2022-12-07T15:01:18;22.20;;;17.10;;
52934;SDS011;38802;50.198;19.796;2022-12-07T15:03:44;24.00;;;17.00;;
52934;SDS011;38802;50.198;19.796;2022-12-07T15:06:15;19.70;;;16.70;;
52934;SDS011;38802;50.198;19.796;2022-12-07T15:08:44;22.30;;;16.30;;
52934;SDS011;38802;50.198;19.796;2022-12-07T15:11:12;22.10;;;17.50;;
52934;SDS011;38802;50.198;19.796;2022-12-07T15:13:41;18.90;;;16.10;;
52934;SDS011;38802;50.198;19.796;2022-12-07T15:16:26;20.70;;;16.60;;
52934;SDS011;38802;50.198;19.796;2022-12-07T15:18:56;19.60;;;17.20;;
52934;SDS011;38802;50.198;19.796;2022-12-07T15:21:43;21.90;;;17.10;;
52934;SDS011;38802;50.198;19.796;2022-12-07T15:24:11;21.70;;;17.80;;
52934;SDS011;38802;50.198;19.796;2022-12-07T15:26:38;22.20;;;17.40;;
52934;SDS011;38802;50.198;19.796;2022-12-07T15:29:07;24.00;;;18.10;;
52934;SDS011;38802;50.198;19.796;2022-12-07T15:31:34;24.90;;;19.10;;
52934;SDS011;38802;50.198;19.796;2022-12-07T15:34:22;23.40;;;19.00;;
52934;SDS011;38802;50.198;19.796;2022-12-07T15:36:51;24.00;;;17.40;;
52934;SDS011;38802;50.198;19.796;2022-12-07T15:39:18;31.20;;;20.40;;
52934;SDS011;38802;50.198;19.796;2022-12-07T15:41:44;26.50;;;19.40;;
52934;SDS011;38802;50.198;19.796;2022-12-07T15:44:12;26.60;;;19.70;;
52934;SDS011;38802;50.198;19.796;2022-12-07T15:46:58;33.30;;;22.20;;
52934;SDS011;38802;50.198;19.796;2022-12-07T15:49:25;24.60;;;19.40;;
52934;SDS011;38802;50.198;19.796;2022-12-07T15:51:53;32.70;;;22.90;;
52934;SDS011;38802;50.198;19.796;2022-12-07T15:54:24;29.00;;;21.00;;
52934;SDS011;38802;50.198;19.796;2022-12-07T15:56:52;30.60;;;20.50;;
52934;SDS011;38802;50.198;19.796;2022-12-07T15:59:20;25.40;;;19.00;;
52934;SDS011;38802;50.198;19.796;2022-12-07T16:01:47;22.00;;;19.00;;
52934;SDS011;38802;50.198;19.796;2022-12-07T16:04:14;28.50;;;19.80;;
52934;SDS011;38802;50.198;19.796;2022-12-07T16:06:42;28.10;;;19.30;;
52934;SDS011;38802;50.198;19.796;2022-12-07T16:09:08;24.10;;;17.90;;
52934;SDS011;38802;50.198;19.796;2022-12-07T16:11:35;26.10;;;18.50;;
52934;SDS011;38802;50.198;19.796;2022-12-07T16:14:02;29.70;;;18.60;;
52934;SDS011;38802;50.198;19.796;2022-12-07T16:16:29;29.90;;;20.10;;
52934;SDS011;38802;50.198;19.796;2022-12-07T16:18:57;30.90;;;20.80;;
52934;SDS011;38802;50.198;19.796;2022-12-07T16:21:24;27.30;;;19.20;;
52934;SDS011;38802;50.198;19.796;2022-12-07T16:23:52;29.40;;;19.40;;
52934;SDS011;38802;50.198;19.796;2022-12-07T16:26:20;27.50;;;18.90;;
52934;SDS011;38802;50.198;19.796;2022-12-07T16:28:51;26.20;;;19.00;;
52934;SDS011;38802;50.198;19.796;2022-12-07T16:31:20;27.40;;;18.80;;
52934;SDS011;38802;50.198;19.796;2022-12-07T16:33:50;26.60;;;19.40;;
52934;SDS011;38802;50.198;19.796;2022-12-07T16:36:19;21.40;;;17.50;;
52934;SDS011;38802;50.198;19.796;2022-12-07T16:39:08;23.90;;;17.70;;
52934;SDS011;38802;50.198;19.796;2022-12-07T16:41:35;25.00;;;19.30;;
52934;SDS011;38802;50.198;19.796;2022-12-07T16:44:03;25.10;;;17.80;;
52934;SDS011;38802;50.198;19.796;2022-12-07T16:46:32;26.80;;;19.00;;
52934;SDS011;38802;50.198;19.796;2022-12-07T16:49:00;31.00;;;19.00;;
52934;SDS011;38802;50.198;19.796;2022-12-07T16:51:27;28.00;;;19.70;;
52934;SDS011;38802;50.198;19.796;2022-12-07T16:53:53;28.10;;;17.90;;
52934;SDS011;38802;50.198;19.796;2022-12-07T16:56:20;27.60;;;20.40;;
52934;SDS011;38802;50.198;19.796;2022-12-07T16:58:47;26.10;;;19.30;;
52934;SDS011;38802;50.198;19.796;2022-12-07T17:01:17;28.00;;;20.20;;
52934;SDS011;38802;50.198;19.796;2022-12-07T17:03:46;25.70;;;19.60;;